Lake Noji, Indiana
Current Conditions -  °F | °C
As of 3:53 PM on Tuesday 21 Oct 2014 (Local Time) from KHUF Reporting Station
Broken Clouds Broken Clouds  
Wind Chill: 58°   Ceiling: 5000
Heat Index: 58°   Visibility: 10mi
Dew Point: 39°   Wind: 12mph
Humidity: 49%   Direction: 10°N
Pressure: 30.11"   Gusts: NA
Location:  39.3587°N, 87.4056°W
Report Text: KHUF 211953Z 01010KT 10SM BKN050 14/04 A3011 RMK AO2 SLP198 T01440039 $
Loading
Personal Weather Stations






























Interactive Weather Map
Tropical Storm Tracking
New forecast layout! Learn more

10-Day Weather Forecast

Advertisements
Track Severe Weather on mobile